createdAt,value
2022-10-01T00:01:28.900Z,8.40
2022-10-01T00:03:58.596Z,7.37
2022-10-01T00:06:27.452Z,7.77
2022-10-01T00:08:55.785Z,8.33
2022-10-01T00:11:26.779Z,9.73
2022-10-01T00:13:55.827Z,9.23
2022-10-01T00:16:26.767Z,8.80
2022-10-01T00:18:55.965Z,9.60
2022-10-01T00:21:29.206Z,8.40
2022-10-01T00:23:59.372Z,8.50
2022-10-01T00:26:30.669Z,9.10
2022-10-01T00:29:02.331Z,8.93
2022-10-01T00:31:31.105Z,8.67
2022-10-01T00:34:02.711Z,9.50
2022-10-01T00:36:33.573Z,10.07
2022-10-01T00:39:02.277Z,9.17
2022-10-01T00:41:33.751Z,8.20
2022-10-01T00:44:05.527Z,10.00
2022-10-01T00:46:43.010Z,8.50
2022-10-01T00:49:16.648Z,8.83
2022-10-01T00:51:51.359Z,9.03
2022-10-01T00:54:25.371Z,8.93
2022-10-01T00:56:58.074Z,10.27
2022-10-01T00:59:27.164Z,10.87
2022-10-01T01:01:55.967Z,9.20
2022-10-01T01:04:24.493Z,10.13
2022-10-01T01:06:57.776Z,8.90
2022-10-01T01:09:30.144Z,9.50
2022-10-01T01:12:08.748Z,9.40
2022-10-01T01:14:44.791Z,8.87
2022-10-01T01:17:20.340Z,8.47
2022-10-01T01:20:16.219Z,9.87
2022-10-01T01:22:51.945Z,9.70
2022-10-01T01:25:23.935Z,9.20
2022-10-01T01:28:06.684Z,8.43
2022-10-01T01:30:39.007Z,8.10
2022-10-01T01:33:15.783Z,8.37
2022-10-01T01:35:52.927Z,8.30
2022-10-01T01:38:28.004Z,8.40
2022-10-01T01:41:00.180Z,9.30
2022-10-01T01:43:33.220Z,9.90
2022-10-01T01:46:04.414Z,8.63
2022-10-01T01:48:36.477Z,8.53
2022-10-01T01:51:13.009Z,9.63
2022-10-01T01:53:42.119Z,8.43
2022-10-01T01:56:10.749Z,8.33
2022-10-01T01:58:41.100Z,8.57
2022-10-01T02:01:35.426Z,8.57
2022-10-01T02:04:07.613Z,8.77
2022-10-01T02:06:50.488Z,8.10
2022-10-01T02:09:29.441Z,8.30
2022-10-01T02:12:12.193Z,9.00
2022-10-01T02:14:54.431Z,8.53
2022-10-01T02:17:33.228Z,8.90
2022-10-01T02:20:08.346Z,8.20
2022-10-01T02:22:43.840Z,9.03
2022-10-01T02:25:13.032Z,8.70
2022-10-01T02:27:49.893Z,9.20
2022-10-01T02:30:20.247Z,8.80
2022-10-01T02:32:51.344Z,9.07
2022-10-01T02:35:22.003Z,9.00
2022-10-01T02:37:54.080Z,8.60
2022-10-01T02:40:27.230Z,8.57
2022-10-01T02:43:01.092Z,8.57
2022-10-01T02:45:35.531Z,8.40
2022-10-01T02:48:07.630Z,8.37
2022-10-01T02:50:45.043Z,8.93
2022-10-01T02:53:20.956Z,7.90
2022-10-01T02:55:51.310Z,8.40
2022-10-01T02:58:19.764Z,8.20
2022-10-01T03:00:50.720Z,7.80
2022-10-01T03:03:19.071Z,8.50
2022-10-01T03:05:47.498Z,7.57
2022-10-01T03:08:15.858Z,8.00
2022-10-01T03:10:46.761Z,7.80
2022-10-01T03:13:17.126Z,8.57
2022-10-01T03:15:47.682Z,6.90
2022-10-01T03:18:17.536Z,6.33
2022-10-01T03:20:46.224Z,6.63
2022-10-01T03:23:14.542Z,6.33
2022-10-01T03:25:42.961Z,5.73
2022-10-01T03:28:11.523Z,6.43
2022-10-01T03:30:39.959Z,5.50
2022-10-01T03:33:08.306Z,6.00
2022-10-01T03:35:38.034Z,5.30
2022-10-01T03:38:06.599Z,5.10
2022-10-01T03:40:38.964Z,5.73
2022-10-01T03:43:07.311Z,5.40
2022-10-01T03:45:35.721Z,5.77
2022-10-01T03:48:04.113Z,6.03
2022-10-01T03:50:32.525Z,5.70
2022-10-01T03:53:02.174Z,5.57
2022-10-01T03:55:31.257Z,5.70
2022-10-01T03:57:59.728Z,5.30
2022-10-01T04:00:28.558Z,5.07
2022-10-01T04:02:57.014Z,5.70
2022-10-01T04:05:25.671Z,5.43
2022-10-01T04:07:54.005Z,6.27
2022-10-01T04:10:23.691Z,6.03
2022-10-01T04:12:52.049Z,5.07
2022-10-01T04:15:20.525Z,5.40
2022-10-01T04:17:48.909Z,4.90
2022-10-01T04:20:18.362Z,5.20
2022-10-01T04:22:47.092Z,5.53
2022-10-01T04:25:15.938Z,5.90
2022-10-01T04:27:59.145Z,5.07
2022-10-01T04:30:30.178Z,5.63
2022-10-01T04:32:58.808Z,5.57
2022-10-01T04:35:28.044Z,5.93
2022-10-01T04:38:03.574Z,4.87
2022-10-01T04:40:33.374Z,5.70
2022-10-01T04:43:03.969Z,5.10
2022-10-01T04:45:33.003Z,5.53
2022-10-01T04:48:01.629Z,5.50
2022-10-01T04:50:30.393Z,5.07
2022-10-01T04:52:58.785Z,5.43
2022-10-01T04:55:27.361Z,5.50
2022-10-01T04:57:55.641Z,5.93
2022-10-01T05:00:26.588Z,5.20
2022-10-01T05:02:55.926Z,5.70
2022-10-01T05:05:28.149Z,5.20
2022-10-01T05:07:57.211Z,5.40
2022-10-01T05:10:26.029Z,5.10
2022-10-01T05:12:54.798Z,4.47
2022-10-01T05:15:24.579Z,5.10
2022-10-01T05:17:53.142Z,5.20
2022-10-01T05:20:24.611Z,5.37
2022-10-01T05:22:53.909Z,4.93
2022-10-01T05:25:22.331Z,5.17
2022-10-01T05:27:51.210Z,5.27
2022-10-01T05:30:24.273Z,4.30
2022-10-01T05:32:59.993Z,4.70
2022-10-01T05:35:28.925Z,4.60
2022-10-01T05:37:59.366Z,4.93
2022-10-01T05:40:29.840Z,4.83
2022-10-01T05:42:59.777Z,5.23
2022-10-01T05:45:29.343Z,5.37
2022-10-01T05:48:00.727Z,4.37
2022-10-01T05:50:31.595Z,4.97
2022-10-01T05:53:01.144Z,5.00
2022-10-01T05:55:33.287Z,5.20
2022-10-01T05:58:03.890Z,4.80
2022-10-01T06:00:33.893Z,4.60
2022-10-01T06:03:05.438Z,4.80
2022-10-01T06:05:36.151Z,5.30
2022-10-01T06:08:07.169Z,5.37
2022-10-01T06:10:36.883Z,5.33
2022-10-01T06:13:06.639Z,4.67
2022-10-01T06:15:38.493Z,5.27
2022-10-01T06:18:10.343Z,4.93
2022-10-01T06:20:39.735Z,4.23
2022-10-01T06:23:12.582Z,5.33
2022-10-01T06:25:42.784Z,5.10
2022-10-01T06:28:14.689Z,5.40
2022-10-01T06:30:43.643Z,4.07
2022-10-01T06:33:15.864Z,4.80
2022-10-01T06:35:46.909Z,4.70
2022-10-01T06:38:16.372Z,3.50
2022-10-01T06:40:45.199Z,4.53
2022-10-01T06:43:13.579Z,4.23
2022-10-01T06:45:43.071Z,4.53
2022-10-01T06:48:16.559Z,3.97
2022-10-01T06:50:46.952Z,4.50
2022-10-01T06:53:18.661Z,4.70
2022-10-01T06:55:47.539Z,4.67
2022-10-01T06:58:19.067Z,4.43
2022-10-01T07:00:47.598Z,4.67
2022-10-01T07:03:19.876Z,4.03
2022-10-01T07:05:48.754Z,3.80
2022-10-01T07:08:18.042Z,4.10
2022-10-01T07:10:46.991Z,5.23
2022-10-01T07:13:17.637Z,4.93
2022-10-01T07:15:46.211Z,4.23
2022-10-01T07:18:16.980Z,4.10
2022-10-01T07:20:45.299Z,3.93
2022-10-01T07:23:16.395Z,4.27
2022-10-01T07:25:45.990Z,4.50
2022-10-01T07:28:18.970Z,3.50
2022-10-01T07:30:49.561Z,4.40
2022-10-01T07:33:21.117Z,4.73
2022-10-01T07:35:49.685Z,4.00
2022-10-01T07:38:18.194Z,4.87
2022-10-01T07:40:52.036Z,4.43
2022-10-01T07:43:20.395Z,5.40
2022-10-01T07:45:50.074Z,4.23
2022-10-01T07:48:20.132Z,4.40
2022-10-01T07:50:48.506Z,3.30
2022-10-01T07:53:17.086Z,4.30
2022-10-01T07:55:45.830Z,4.20
2022-10-01T07:58:14.531Z,4.67
2022-10-01T08:00:43.612Z,4.50
2022-10-01T08:03:12.731Z,5.30
2022-10-01T08:05:43.762Z,4.50
2022-10-01T08:08:12.281Z,3.83
2022-10-01T08:10:41.333Z,4.30
2022-10-01T08:13:15.338Z,4.30
2022-10-01T08:15:45.097Z,4.97
2022-10-01T08:18:14.061Z,4.80
2022-10-01T08:20:44.246Z,4.37
2022-10-01T08:23:14.825Z,3.93
2022-10-01T08:25:45.076Z,3.47
2022-10-01T08:28:13.662Z,3.27
2022-10-01T08:30:43.729Z,3.10
2022-10-01T08:33:14.242Z,4.47
2022-10-01T08:35:44.785Z,4.20
2022-10-01T08:38:14.127Z,4.13
2022-10-01T08:40:48.626Z,3.77
2022-10-01T08:43:31.735Z,3.60
2022-10-01T08:46:04.960Z,4.33
2022-10-01T08:48:56.824Z,4.33
2022-10-01T08:51:33.829Z,3.80
2022-10-01T08:54:11.503Z,4.20
2022-10-01T08:56:46.303Z,4.43
2022-10-01T08:59:41.887Z,3.97
2022-10-01T09:02:21.793Z,4.33
2022-10-01T09:04:55.066Z,4.20
2022-10-01T09:07:46.582Z,4.67
2022-10-01T09:10:32.270Z,4.73
2022-10-01T09:13:39.629Z,4.50
2022-10-01T09:16:17.488Z,4.47
2022-10-01T09:19:01.542Z,5.33
2022-10-01T09:21:47.678Z,4.80
2022-10-01T09:24:26.538Z,4.60
2022-10-01T09:26:55.318Z,4.20
2022-10-01T09:29:28.559Z,3.77
2022-10-01T09:31:58.536Z,4.40
2022-10-01T09:34:34.090Z,4.50
2022-10-01T09:37:14.803Z,3.87
2022-10-01T09:39:58.798Z,4.07
2022-10-01T09:42:30.527Z,3.53
2022-10-01T09:44:59.574Z,3.80
2022-10-01T09:47:28.206Z,3.70
2022-10-01T09:49:59.799Z,3.80
2022-10-01T09:52:34.713Z,3.77
2022-10-01T09:55:12.456Z,3.33
2022-10-01T09:57:47.527Z,3.13
2022-10-01T10:00:19.911Z,2.80
2022-10-01T10:02:50.667Z,3.37
2022-10-01T10:05:21.701Z,3.33
2022-10-01T10:07:55.337Z,3.20
2022-10-01T10:10:30.101Z,3.27
2022-10-01T10:13:02.766Z,3.47
2022-10-01T10:15:32.595Z,3.30
2022-10-01T10:18:09.147Z,2.30
2022-10-01T10:20:42.046Z,2.97
2022-10-01T10:23:16.564Z,2.50
2022-10-01T10:25:56.640Z,2.60
2022-10-01T10:28:25.832Z,2.60
2022-10-01T10:30:57.169Z,2.50
2022-10-01T10:33:27.440Z,2.33
2022-10-01T10:36:02.101Z,2.97
2022-10-01T10:38:34.974Z,2.63
2022-10-01T10:41:05.412Z,2.30
2022-10-01T10:43:37.996Z,2.70
2022-10-01T10:46:08.431Z,2.83
2022-10-01T10:48:40.292Z,2.90
2022-10-01T10:51:10.422Z,2.80
2022-10-01T10:53:45.036Z,2.60
2022-10-01T10:56:23.104Z,2.93
2022-10-01T10:58:53.838Z,2.80
2022-10-01T11:01:29.394Z,3.20
2022-10-01T11:04:00.551Z,2.57
2022-10-01T11:06:30.346Z,3.30
2022-10-01T11:09:04.871Z,3.20
2022-10-01T11:11:48.250Z,3.90
2022-10-01T11:14:36.456Z,2.30
2022-10-01T11:17:24.749Z,2.50
2022-10-01T11:20:17.469Z,2.60
2022-10-01T11:23:05.947Z,2.80
2022-10-01T11:25:46.566Z,2.40
2022-10-01T11:28:33.787Z,2.43
2022-10-01T11:31:14.818Z,2.33
2022-10-01T11:33:57.932Z,2.00
2022-10-01T11:36:34.440Z,2.00
2022-10-01T11:39:06.410Z,2.77
2022-10-01T11:41:39.658Z,2.33
2022-10-01T11:44:18.691Z,2.20
2022-10-01T11:46:58.596Z,1.83
2022-10-01T11:49:42.961Z,2.10
2022-10-01T11:52:33.954Z,2.50
2022-10-01T11:55:30.815Z,2.40
2022-10-01T11:58:26.611Z,2.70
2022-10-01T12:01:04.917Z,3.40
2022-10-01T12:03:46.170Z,3.03
2022-10-01T12:06:15.867Z,2.23
2022-10-01T12:08:53.949Z,2.60
2022-10-01T12:11:29.362Z,2.30
2022-10-01T12:14:04.045Z,2.90
2022-10-01T12:16:43.157Z,2.70
2022-10-01T12:19:21.667Z,2.80
2022-10-01T12:21:55.358Z,2.27
2022-10-01T12:24:30.462Z,2.43
2022-10-01T12:27:20.390Z,2.20
2022-10-01T12:29:56.372Z,2.00
2022-10-01T12:32:37.874Z,2.03
2022-10-01T12:35:21.820Z,2.20
2022-10-01T12:38:10.023Z,1.67
2022-10-01T12:40:46.677Z,1.80
2022-10-01T12:43:49.073Z,1.50
2022-10-01T12:46:32.206Z,1.40
2022-10-01T12:49:14.836Z,2.13
2022-10-01T12:51:46.832Z,1.80
2022-10-01T12:54:33.732Z,1.87
2022-10-01T12:57:17.316Z,1.77
2022-10-01T13:00:05.287Z,1.67
2022-10-01T13:03:16.253Z,2.00
2022-10-01T13:05:59.467Z,1.47
2022-10-01T13:09:01.983Z,2.17
2022-10-01T13:11:48.619Z,1.73
2022-10-01T13:14:18.962Z,1.90
2022-10-01T13:16:58.191Z,1.80
2022-10-01T13:19:38.814Z,2.20
2022-10-01T13:22:19.122Z,1.30
2022-10-01T13:25:00.932Z,1.87
2022-10-01T13:27:37.341Z,1.80
2022-10-01T13:30:15.320Z,1.83
2022-10-01T13:32:53.434Z,2.53
2022-10-01T13:35:32.876Z,1.93
2022-10-01T13:38:16.858Z,2.50
2022-10-01T13:40:45.619Z,1.93
2022-10-01T13:43:19.137Z,3.23
2022-10-01T13:45:49.138Z,2.60
2022-10-01T13:48:22.120Z,1.50
2022-10-01T13:51:03.068Z,1.77
2022-10-01T13:53:36.300Z,1.33
2022-10-01T13:56:05.985Z,2.10
2022-10-01T13:58:39.498Z,1.93
2022-10-01T14:01:30.010Z,2.43
2022-10-01T14:04:10.334Z,1.57
2022-10-01T14:06:45.514Z,1.90
2022-10-01T14:09:20.674Z,1.93
2022-10-01T14:12:10.687Z,1.60
2022-10-01T14:14:59.168Z,1.20
2022-10-01T14:17:31.835Z,1.13
2022-10-01T14:20:01.678Z,1.40
2022-10-01T14:22:46.498Z,1.00
2022-10-01T14:25:37.304Z,0.87
2022-10-01T14:28:52.148Z,1.20
2022-10-01T14:31:32.324Z,1.20
2022-10-01T14:34:28.466Z,0.80
2022-10-01T14:36:57.856Z,0.83
2022-10-01T14:39:28.658Z,1.10
2022-10-01T14:41:59.424Z,2.40
2022-10-01T14:44:30.120Z,1.80
2022-10-01T14:47:00.843Z,1.23
2022-10-01T14:49:31.251Z,1.27
2022-10-01T14:52:03.995Z,1.57
2022-10-01T14:54:42.852Z,1.00
2022-10-01T14:57:18.434Z,1.00
2022-10-01T14:59:49.390Z,1.27
2022-10-01T15:02:23.534Z,1.33
2022-10-01T15:04:55.237Z,2.00
2022-10-01T15:07:25.562Z,1.77
2022-10-01T15:09:53.921Z,2.10
2022-10-01T15:12:24.734Z,3.63
2022-10-01T15:14:55.769Z,2.13
2022-10-01T15:17:26.288Z,2.13
2022-10-01T15:19:58.569Z,2.30
2022-10-01T15:22:31.312Z,2.20
2022-10-01T15:25:02.115Z,1.20
2022-10-01T15:27:32.438Z,9.33
2022-10-01T15:30:01.244Z,7.40
2022-10-01T15:32:30.321Z,2.37
2022-10-01T15:35:01.455Z,1.60
2022-10-01T15:37:35.076Z,2.00
2022-10-01T15:40:05.686Z,2.30
2022-10-01T15:42:36.909Z,1.97
2022-10-01T15:45:26.368Z,2.00
2022-10-01T15:47:57.119Z,2.00
2022-10-01T15:50:28.352Z,2.00
2022-10-01T15:53:06.125Z,1.43
2022-10-01T15:55:40.229Z,1.37
2022-10-01T15:58:18.292Z,2.00
2022-10-01T16:01:00.505Z,2.53
2022-10-01T16:03:34.368Z,3.50
2022-10-01T16:06:04.789Z,2.30
2022-10-01T16:08:39.353Z,2.77
2022-10-01T16:11:23.853Z,2.73
2022-10-01T16:14:30.814Z,2.10
2022-10-01T16:17:29.650Z,2.50
2022-10-01T16:20:00.995Z,3.07
2022-10-01T16:22:32.845Z,3.50
2022-10-01T16:25:03.425Z,3.67
2022-10-01T16:27:36.122Z,4.57
2022-10-01T16:30:16.844Z,6.30
2022-10-01T16:32:45.205Z,4.90
2022-10-01T16:35:20.031Z,4.33
2022-10-01T16:37:50.221Z,4.30
2022-10-01T16:40:20.288Z,5.60
2022-10-01T16:42:50.559Z,6.90
2022-10-01T16:45:24.248Z,7.67
2022-10-01T16:47:53.745Z,6.47
2022-10-01T16:50:23.631Z,6.13
2022-10-01T16:52:54.662Z,5.60
2022-10-01T16:55:26.998Z,4.70
2022-10-01T16:57:55.843Z,3.90
2022-10-01T17:00:27.830Z,6.43
2022-10-01T17:02:57.136Z,6.73
2022-10-01T17:05:28.291Z,5.27
2022-10-01T17:08:00.949Z,7.10
2022-10-01T17:10:31.943Z,5.70
2022-10-01T17:13:01.976Z,6.80
2022-10-01T17:15:33.342Z,6.90
2022-10-01T17:18:01.927Z,5.80
2022-10-01T17:20:31.830Z,5.60
2022-10-01T17:23:00.566Z,5.73
2022-10-01T17:25:32.257Z,5.87
2022-10-01T17:28:02.437Z,4.93
2022-10-01T17:30:32.980Z,7.80
2022-10-01T17:33:02.401Z,8.30
2022-10-01T17:35:31.423Z,6.40
2022-10-01T17:37:59.998Z,5.50
2022-10-01T17:40:29.040Z,5.30
2022-10-01T17:43:00.331Z,4.00
2022-10-01T17:45:30.183Z,5.10
2022-10-01T17:48:00.678Z,4.70
2022-10-01T17:50:30.332Z,3.90
2022-10-01T17:53:00.781Z,3.57
2022-10-01T17:55:29.469Z,5.13
2022-10-01T17:57:58.090Z,3.97
2022-10-01T18:00:26.626Z,5.90
2022-10-01T18:02:55.789Z,5.57
2022-10-01T18:05:27.868Z,5.30
2022-10-01T18:07:58.665Z,4.80
2022-10-01T18:10:33.151Z,6.00
2022-10-01T18:13:02.879Z,4.37
2022-10-01T18:15:59.962Z,5.23
2022-10-01T18:21:18.128Z,3.23
2022-10-01T18:23:46.452Z,3.40
2022-10-01T18:26:15.602Z,3.20
2022-10-01T18:28:44.000Z,4.10
2022-10-01T18:31:21.567Z,3.60
2022-10-01T18:33:53.761Z,4.10
2022-10-01T18:36:40.405Z,3.93
2022-10-01T18:39:15.564Z,4.47
2022-10-01T18:41:44.410Z,4.80
2022-10-01T18:44:19.940Z,4.63
2022-10-01T18:47:04.114Z,5.33
2022-10-01T18:50:12.985Z,4.30
2022-10-01T18:52:59.640Z,4.00
2022-10-01T18:55:55.468Z,3.90
2022-10-01T18:58:53.641Z,4.50
2022-10-01T19:01:31.971Z,3.93
2022-10-01T19:04:33.880Z,5.67
2022-10-01T19:07:11.580Z,3.13
2022-10-01T19:09:52.542Z,4.33
2022-10-01T19:12:42.145Z,4.97
2022-10-01T19:15:21.248Z,4.43
2022-10-01T19:17:59.328Z,4.27
2022-10-01T19:20:46.156Z,4.63
2022-10-01T19:23:40.934Z,5.27
2022-10-01T19:26:18.272Z,5.37
2022-10-01T19:29:07.536Z,4.93
2022-10-01T19:31:45.315Z,4.97
2022-10-01T19:34:19.916Z,4.43
2022-10-01T19:36:55.443Z,3.63
2022-10-01T19:39:28.342Z,3.80
2022-10-01T19:42:04.181Z,4.43
2022-10-01T19:44:38.466Z,4.73
2022-10-01T19:47:25.043Z,3.70
2022-10-01T19:49:57.113Z,3.20
2022-10-01T19:52:27.184Z,4.83
2022-10-01T19:54:59.123Z,4.90
2022-10-01T19:57:30.845Z,5.50
2022-10-01T20:00:04.423Z,6.30
2022-10-01T20:02:45.806Z,5.67
2022-10-01T20:05:18.228Z,4.53
2022-10-01T20:07:51.967Z,4.03
2022-10-01T20:10:26.916Z,3.27
2022-10-01T20:13:18.118Z,4.43
2022-10-01T20:15:55.366Z,4.70
2022-10-01T20:18:35.720Z,4.53
2022-10-01T20:21:20.890Z,6.20
2022-10-01T20:23:59.169Z,4.43
2022-10-01T20:26:37.932Z,5.03
2022-10-01T20:29:32.245Z,6.90
2022-10-01T20:32:08.847Z,4.07
2022-10-01T20:34:49.829Z,4.50
2022-10-01T20:37:35.130Z,5.23
2022-10-01T20:40:14.563Z,4.33
2022-10-01T20:42:48.843Z,5.20
2022-10-01T20:45:24.419Z,5.60
2022-10-01T20:48:00.476Z,4.63
2022-10-01T20:50:35.552Z,5.43
2022-10-01T20:53:19.153Z,4.17
2022-10-01T20:55:52.303Z,5.90
2022-10-01T20:58:25.305Z,7.80
2022-10-01T21:01:01.180Z,6.50
2022-10-01T21:03:35.329Z,4.27
2022-10-01T21:06:08.478Z,8.40
2022-10-01T21:08:49.847Z,9.20
2022-10-01T21:11:28.141Z,8.90
2022-10-01T21:14:07.282Z,7.53
2022-10-01T21:17:11.012Z,6.17
2022-10-01T21:19:57.591Z,4.10
2022-10-01T21:22:41.554Z,3.10
2022-10-01T21:25:21.488Z,3.20
2022-10-01T21:28:10.489Z,3.27
2022-10-01T21:30:57.048Z,2.93
2022-10-01T21:33:32.793Z,4.03
2022-10-01T21:36:09.019Z,3.00
2022-10-01T21:38:45.940Z,3.10
2022-10-01T21:41:52.070Z,2.60
2022-10-01T21:45:01.493Z,2.43
2022-10-01T21:47:44.113Z,2.43
2022-10-01T21:50:26.174Z,3.57
2022-10-01T21:53:25.412Z,2.30
2022-10-01T21:56:24.756Z,2.40
2022-10-01T21:59:07.186Z,1.90
2022-10-01T22:02:01.588Z,2.17
2022-10-01T22:04:39.260Z,2.23
2022-10-01T22:07:19.018Z,1.90
2022-10-01T22:10:05.606Z,2.27
2022-10-01T22:12:37.543Z,2.77
2022-10-01T22:15:21.220Z,2.50
2022-10-01T22:17:52.682Z,2.30
2022-10-01T22:20:23.362Z,2.80
2022-10-01T22:22:57.937Z,3.30
2022-10-01T22:25:28.199Z,3.20
2022-10-01T22:28:02.472Z,3.10
2022-10-01T22:30:36.988Z,2.77
2022-10-01T22:33:11.762Z,2.70
2022-10-01T22:35:46.622Z,2.53
2022-10-01T22:38:21.186Z,2.40
2022-10-01T22:40:55.173Z,3.50
2022-10-01T22:43:23.488Z,2.27
2022-10-01T22:46:19.901Z,2.40
2022-10-01T22:48:59.901Z,2.70
2022-10-01T22:51:49.800Z,2.40
2022-10-01T22:54:33.042Z,2.50
2022-10-01T22:57:18.853Z,2.50
2022-10-01T22:59:59.613Z,3.07
2022-10-01T23:02:38.849Z,3.23
2022-10-01T23:05:31.565Z,2.50
2022-10-01T23:08:12.143Z,2.57
2022-10-01T23:10:56.090Z,2.77
2022-10-01T23:13:32.004Z,3.27
2022-10-01T23:16:09.984Z,2.53
2022-10-01T23:18:48.668Z,3.10
2022-10-01T23:21:32.615Z,2.67
2022-10-01T23:24:20.327Z,2.10
2022-10-01T23:27:01.712Z,2.20
2022-10-01T23:29:57.340Z,2.90
2022-10-01T23:32:41.174Z,2.13
2022-10-01T23:35:15.909Z,2.73
2022-10-01T23:38:14.708Z,3.20
2022-10-01T23:40:48.189Z,3.07
2022-10-01T23:43:25.054Z,2.73
2022-10-01T23:46:02.117Z,2.90
2022-10-01T23:48:38.884Z,2.40
2022-10-01T23:51:12.393Z,3.00
2022-10-01T23:53:49.192Z,3.07
2022-10-01T23:56:41.197Z,3.00
2022-10-01T23:59:19.358Z,3.50
